M I D A S
Marine Information and Data Acquisition System
Tripno 1832 of the Zeeleeuw from 2009-09-08 06:42:32 to 2009-09-08 15:46:46
Back to CruiseResearch ActivitiesStationsMapUnderway DataData graphs

EquipmentUnitsComment
TimeDGPSUTC
LatitudeDGPSDM.mWGS84
LongitudeDGPSDM.mWGS84
HeadingGyrodeg 
SOGDGPSknotsSpeed over ground
COGDGPSdegCourse over ground
DepthEcho soundermeters200 kHz
Missing or incorrect values are displayed as -999
Navigation data collected by the RV Zeeleeuw from 2009-09-08 06:35:41 to 2009-09-08 17:01:32
Time Latitude Longitude Heading SOG COG Depth
2009-09-08 06:36:50 51°13.681 2°55.884 110.4 3.8 292 -999
2009-09-08 06:37:50 51°13.695 2°55.787 88.6 3.2 274 -999
2009-09-08 06:38:48 51°13.694 2°55.738 58.6 0.5 289 12.5
2009-09-08 06:39:46 51°13.717 2°55.737 357.9 2.3 349 12.2
2009-09-08 06:40:46 51°13.777 2°55.683 330.1 5.7 328 11
2009-09-08 06:41:46 51°13.887 2°55.594 337.8 8.4 336 11.2
2009-09-08 06:42:46 51°14.022 2°55.498 337.5 9.4 336 11
2009-09-08 06:43:46 51°14.173 2°55.374 329.6 10.6 326 11.2
2009-09-08 06:44:46 51°14.304 2°55.179 315.2 11.1 312 10.3
2009-09-08 06:45:46 51°14.441 2°54.968 324.5 11.5 321 9.8
2009-09-08 06:46:46 51°14.599 2°54.8 335.8 11.4 327 9.4
2009-09-08 06:47:46 51°14.759 2°54.638 333.9 11.4 326 9.3
2009-09-08 06:48:46 51°14.917 2°54.475 334.5 11.2 328 9
2009-09-08 06:49:46 51°15.077 2°54.316 334 11.4 328 10.2
2009-09-08 06:50:46 51°15.238 2°54.16 334.6 11.3 328 10.3
2009-09-08 06:51:46 51°15.4 2°54.004 335.8 11.4 330 10.5
2009-09-08 06:52:46 51°15.566 2°53.852 336.3 11.5 330 10.5
2009-09-08 06:53:46 51°15.73 2°53.695 336 11.5 329 10.6
2009-09-08 06:54:46 51°15.895 2°53.538 336.5 11.6 329 11
2009-09-08 06:55:46 51°16.059 2°53.377 334.1 11.6 328 11.2
2009-09-08 06:56:46 51°16.224 2°53.22 336.1 11.6 330 11.4
2009-09-08 06:57:46 51°16.39 2°53.062 335.6 11.6 329 11.4
2009-09-08 06:58:46 51°16.555 2°52.904 335.8 11.6 329 11.2
2009-09-08 06:59:46 51°16.721 2°52.744 334.7 11.6 329 9.9
2009-09-08 07:00:46 51°16.891 2°52.617 346.6 11.3 342 9.1
2009-09-08 07:01:46 51°17.07 2°52.533 349.9 11.2 344 9.1
2009-09-08 07:02:46 51°17.252 2°52.485 359.9 11.1 355 9.5
2009-09-08 07:03:46 51°17.435 2°52.457 0.4 11 355 9.8
2009-09-08 07:04:46 51°17.619 2°52.429 0.1 11.1 355 9.7
2009-09-08 07:05:46 51°17.804 2°52.405 2.1 11.1 356 9.8
2009-09-08 07:06:46 51°17.989 2°52.379 1.2 11.3 354 9.9
2009-09-08 07:07:46 51°18.174 2°52.345 0.1 11.2 353 10
2009-09-08 07:08:46 51°18.36 2°52.31 359.6 11.3 353 10.5
2009-09-08 07:09:46 51°18.546 2°52.271 358.9 11.3 352 10.9
2009-09-08 07:10:46 51°18.733 2°52.233 359.6 11.3 353 11.5
2009-09-08 07:11:46 51°18.92 2°52.195 359.3 11.3 353 12.7
2009-09-08 07:12:46 51°19.105 2°52.147 357.6 11.3 351 13.5
2009-09-08 07:13:46 51°19.291 2°52.103 358.8 11.3 351 14.3
2009-09-08 07:14:46 51°19.477 2°52.064 356.6 11.3 349 14.6
2009-09-08 07:15:46 51°19.659 2°51.977 348.7 11.5 342 15
2009-09-08 07:16:46 51°19.841 2°51.88 349.3 11.5 342 14.9
2009-09-08 07:17:46 51°20.023 2°51.783 347.3 11.5 339 12.9
2009-09-08 07:18:46 51°20.205 2°51.686 349.8 11.6 342 12.7
2009-09-08 07:19:46 51°20.39 2°51.59 349.6 11.6 341 12.6
2009-09-08 07:20:46 51°20.575 2°51.494 349.2 11.7 342 14
2009-09-08 07:21:46 51°20.76 2°51.4 349.3 11.7 342 16
2009-09-08 07:22:46 51°20.946 2°51.305 349.3 11.7 342 17.9
2009-09-08 07:23:46 51°21.131 2°51.209 349.6 11.6 342 20.7
2009-09-08 07:24:46 51°21.313 2°51.111 349.5 11.5 342 22.3
2009-09-08 07:25:46 51°21.495 2°51.014 349.2 11.5 341 22.6
2009-09-08 07:26:46 51°21.677 2°50.92 349.4 11.5 343 23
2009-09-08 07:27:46 51°21.86 2°50.827 348.4 11.6 341 22.1
2009-09-08 07:28:46 51°22.044 2°50.736 349.2 11.6 343 21.9
2009-09-08 07:29:46 51°22.228 2°50.644 349.7 11.6 343 21.9
2009-09-08 07:30:46 51°22.412 2°50.552 348.7 11.6 342 21.7
2009-09-08 07:31:46 51°22.596 2°50.457 347.6 11.6 339 21.3
2009-09-08 07:32:46 51°22.774 2°50.337 343.6 11.7 336 18.1
2009-09-08 07:33:46 51°22.951 2°50.214 343.2 11.6 337 12.2
2009-09-08 07:34:46 51°23.128 2°50.091 344.1 11.6 337 16.2
2009-09-08 07:35:46 51°23.307 2°49.972 344.8 11.6 338 17
2009-09-08 07:36:46 51°23.485 2°49.852 344.5 11.6 337 19.4
2009-09-08 07:37:46 51°23.664 2°49.732 344.3 11.6 337 21.6
2009-09-08 07:38:46 51°23.841 2°49.611 344.4 11.6 337 21
2009-09-08 07:39:46 51°24.019 2°49.489 344.3 11.6 337 21.4
2009-09-08 07:40:46 51°24.196 2°49.365 343.7 11.6 335 21.7
2009-09-08 07:41:46 51°24.372 2°49.239 344.5 11.7 336 21.3
2009-09-08 07:42:46 51°24.549 2°49.115 344.5 11.6 337 21
2009-09-08 07:43:46 51°24.726 2°48.992 344.5 11.6 337 21
2009-09-08 07:44:46 51°24.878 2°48.88 343.6 8.7 333 21.5
2009-09-08 07:45:46 51°25 2°48.796 349.6 7.8 339 23.2
2009-09-08 07:46:46 51°25.118 2°48.735 354.6 6.6 343 24.8
2009-09-08 07:47:46 51°25.2 2°48.7 5.2 4.4 350 25.8
2009-09-08 07:48:46 51°25.245 2°48.722 61.8 2.1 53 25.8
2009-09-08 07:49:46 51°25.237 2°48.766 123.3 2.2 144 25.4
2009-09-08 07:50:46 51°25.189 2°48.773 171.4 3.5 191 24.9
2009-09-08 07:51:46 51°25.138 2°48.72 215.4 4 227 25.2
2009-09-08 07:52:46 51°25.1 2°48.621 248.5 4.7 250 25.4
2009-09-08 07:53:46 51°25.092 2°48.511 284.5 3.8 278 26.4
2009-09-08 07:54:46 51°25.113 2°48.433 331.6 2.8 307 27.3
2009-09-08 07:55:46 51°25.142 2°48.397 14.7 1.8 338 27.9
2009-09-08 07:56:46 51°25.163 2°48.397 57.8 0.9 26 28.2
2009-09-08 07:57:46 51°25.165 2°48.43 95.7 2.5 101 27.9
2009-09-08 07:58:46 51°25.131 2°48.505 130.8 3.8 145 26.8
2009-09-08 07:59:46 51°25.074 2°48.532 159 3.6 177 26
2009-09-08 08:00:46 51°25.013 2°48.516 183.5 3.8 200 25.8
2009-09-08 08:01:46 51°24.957 2°48.462 208.8 4 220 24.2
2009-09-08 08:02:46 51°24.913 2°48.383 224.4 4 231 25.9
2009-09-08 08:03:46 51°24.875 2°48.3 224.1 3.9 232 25.2
2009-09-08 08:04:46 51°24.84 2°48.215 235.7 3.7 241 25.7
2009-09-08 08:05:46 51°24.813 2°48.124 248.2 3.7 250 26
2009-09-08 08:06:46 51°24.795 2°48.029 257.7 3.7 256 26.3
2009-09-08 08:07:46 51°24.781 2°47.932 260.4 3.7 258 27.2
2009-09-08 08:08:46 51°24.768 2°47.834 261.5 3.8 258 27.8
2009-09-08 08:09:46 51°24.756 2°47.737 260.7 3.7 259 28.5
2009-09-08 08:10:46 51°24.741 2°47.64 260.1 3.8 256 28.4
2009-09-08 08:11:46 51°24.727 2°47.543 259.4 3.8 256 29.2
2009-09-08 08:12:46 51°24.713 2°47.446 259.7 3.7 257 29.4
2009-09-08 08:13:46 51°24.698 2°47.348 259.5 3.8 256 28.9
2009-09-08 08:14:46 51°24.683 2°47.251 259.1 3.7 255 29.5
2009-09-08 08:15:46 51°24.663 2°47.157 249.4 3.7 249 29.2
2009-09-08 08:16:46 51°24.639 2°47.065 243.4 3.7 246 29.4
2009-09-08 08:17:46 51°24.608 2°46.979 231.6 3.7 236 29.7
2009-09-08 08:18:46 51°24.573 2°46.896 229.9 3.7 235 29.4
2009-09-08 08:19:46 51°24.534 2°46.818 221.4 3.7 230 28.2
2009-09-08 08:20:46 51°24.492 2°46.742 220.6 3.8 228 28.1
2009-09-08 08:21:46 51°24.45 2°46.665 223.4 3.9 229 27.2
2009-09-08 08:22:46 51°24.41 2°46.586 223.8 3.9 230 27
2009-09-08 08:23:46 51°24.369 2°46.506 223.3 4 230 25.8
2009-09-08 08:24:46 51°24.327 2°46.426 223.6 3.9 231 25.2
2009-09-08 08:25:46 51°24.285 2°46.345 224.4 4 230 28
2009-09-08 08:26:46 51°24.244 2°46.266 224.3 3.9 231 27.7
2009-09-08 08:27:46 51°24.204 2°46.186 224.3 3.9 231 25.5
2009-09-08 08:28:46 51°24.163 2°46.104 227.1 3.9 233 26.5
2009-09-08 08:29:46 51°24.132 2°46.014 251.9 3.8 248 27.9
2009-09-08 08:30:46 51°24.117 2°45.918 273 3.7 262 26
2009-09-08 08:31:46 51°24.112 2°45.819 280 3.8 268 25.8
2009-09-08 08:32:46 51°24.116 2°45.719 302.7 3.6 282 25.5
2009-09-08 08:33:46 51°24.138 2°45.636 329.6 3.2 301 24.8
2009-09-08 08:34:46 51°24.17 2°45.577 352.6 2.6 320 24.2
2009-09-08 08:35:46 51°24.196 2°45.568 48 1.1 34 25
2009-09-08 08:36:46 51°24.192 2°45.594 100.4 1.2 146 25.2
2009-09-08 08:37:46 51°24.174 2°45.601 108.4 1.2 166 25.4
2009-09-08 08:38:46 51°24.144 2°45.653 102.3 4.5 112 25.3
2009-09-08 08:39:46 51°24.161 2°45.818 71.4 7.2 72 25.3
2009-09-08 08:40:46 51°24.204 2°46.017 69 8.9 70 27.3
2009-09-08 08:41:46 51°24.259 2°46.258 69.8 9.7 70 27.3
2009-09-08 08:42:46 51°24.314 2°46.502 69.3 9.7 70 25.9
2009-09-08 08:43:46 51°24.371 2°46.743 65.8 9.7 67 27.5
2009-09-08 08:44:46 51°24.444 2°46.976 63.2 9.9 62 29.4
2009-09-08 08:45:46 51°24.517 2°47.21 63.9 9.8 63 29.7
2009-09-08 08:46:46 51°24.592 2°47.441 61.7 9.8 61 29.2
2009-09-08 08:47:46 51°24.669 2°47.67 62.9 9.7 62 28.4
2009-09-08 08:48:46 51°24.74 2°47.903 65.8 9.8 66 27.3
2009-09-08 08:49:46 51°24.808 2°48.138 65.3 9.7 64 25.8
2009-09-08 08:50:46 51°24.908 2°48.339 49.6 9.7 45 24.6
2009-09-08 08:51:46 51°24.997 2°48.487 59.5 4.6 64 25.9
2009-09-08 08:52:46 51°24.979 2°48.558 123.9 3 154 25
2009-09-08 08:53:46 51°24.923 2°48.551 184.6 3.9 205 24.5
2009-09-08 08:54:46 51°24.881 2°48.491 230.1 2.5 234 24.5
2009-09-08 08:55:46 51°24.867 2°48.456 262 1.3 239 -999
2009-09-08 08:56:46 51°24.856 2°48.426 280 1.4 238 24.6
2009-09-08 08:57:46 51°24.844 2°48.396 289.1 1.3 236 24.2
2009-09-08 08:58:46 51°24.831 2°48.366 293.4 1.4 238 24.5
2009-09-08 08:59:46 51°24.819 2°48.335 299 1.3 239 25.1
2009-09-08 09:00:46 51°24.808 2°48.305 303.1 1.4 238 23.9
2009-09-08 09:01:46 51°24.796 2°48.273 305.4 1.4 239 23.6
2009-09-08 09:02:46 51°24.783 2°48.242 308.6 1.3 238 24.4
2009-09-08 09:03:46 51°24.771 2°48.212 310.4 1.4 237 24.8
2009-09-08 09:04:46 51°24.758 2°48.181 310 1.4 238 25.1
2009-09-08 09:05:46 51°24.745 2°48.149 308.6 1.4 237 24.9
2009-09-08 09:06:46 51°24.733 2°48.118 307.2 1.4 236 25.3
2009-09-08 09:07:46 51°24.721 2°48.088 306 1.4 237 25.1
2009-09-08 09:08:46 51°24.708 2°48.056 303.3 1.4 237 25.4
2009-09-08 09:09:46 51°24.695 2°48.026 300.9 1.4 236 25.6
2009-09-08 09:10:46 51°24.682 2°47.995 301.3 1.4 236 25.8
2009-09-08 09:11:46 51°24.669 2°47.965 304 1.4 236 26.4
2009-09-08 09:12:46 51°24.657 2°47.936 307 1.3 235 26.7
2009-09-08 09:13:46 51°24.643 2°47.906 308.2 1.4 235 26.6
2009-09-08 09:14:46 51°24.63 2°47.877 308.9 1.4 234 26.5
2009-09-08 09:15:46 51°24.627 2°47.827 316.9 2.6 282 26.7
2009-09-08 09:16:46 51°24.66 2°47.762 359.4 3.8 339 27.2
2009-09-08 09:17:46 51°24.723 2°47.811 46.9 6.1 40 28.1
2009-09-08 09:18:46 51°24.837 2°47.946 41.1 9.6 36 26.7
2009-09-08 09:19:46 51°24.968 2°48.099 41.3 9.9 37 28.2
2009-09-08 09:20:46 51°25.1 2°48.257 41.2 9.9 35 28.7
2009-09-08 09:21:46 51°25.233 2°48.412 41.6 9.9 38 28.5
2009-09-08 09:22:46 51°25.363 2°48.574 42.7 9.9 37 28.1
2009-09-08 09:23:46 51°25.492 2°48.736 42.4 9.8 38 23.7
2009-09-08 09:24:46 51°25.62 2°48.896 42.3 9.8 38 23.3
2009-09-08 09:25:46 51°25.748 2°49.057 42.5 9.8 38 22.9
2009-09-08 09:26:46 51°25.879 2°49.214 41.4 9.8 36 22.6
2009-09-08 09:27:46 51°26.007 2°49.378 42.5 9.9 39 22.5
2009-09-08 09:28:46 51°26.135 2°49.545 43 9.9 39 22.1
2009-09-08 09:29:46 51°26.263 2°49.712 41.9 9.9 39 22.3
2009-09-08 09:30:46 51°26.392 2°49.881 42.3 10.1 39 22
2009-09-08 09:31:46 51°26.52 2°50.051 42.2 10 40 22.2
2009-09-08 09:32:46 51°26.649 2°50.219 42.5 10.1 41 19.8
2009-09-08 09:33:46 51°26.777 2°50.389 41.9 10 40 21.8
2009-09-08 09:34:46 51°26.905 2°50.56 42.7 10 40 19.6
2009-09-08 09:35:46 51°27.032 2°50.732 42.2 10 40 17.6
2009-09-08 09:36:46 51°27.158 2°50.904 42.3 9.9 40 18.1
2009-09-08 09:37:46 51°27.285 2°51.076 42.2 9.9 40 18.3
2009-09-08 09:38:46 51°27.41 2°51.247 42.7 9.9 41 19
2009-09-08 09:39:46 51°27.536 2°51.417 42.5 9.9 40 20.1
2009-09-08 09:40:46 51°27.663 2°51.584 40.7 9.8 38 20.6
2009-09-08 09:41:46 51°27.789 2°51.75 42.4 9.8 41 19.6
2009-09-08 09:42:46 51°27.917 2°51.911 41.5 9.8 39 21.1
2009-09-08 09:43:46 51°28.043 2°52.074 43.4 9.7 41 21.9
2009-09-08 09:44:46 51°28.166 2°52.242 43 9.8 40 22.1
2009-09-08 09:45:46 51°28.29 2°52.409 43 9.6 40 22.6
2009-09-08 09:46:46 51°28.415 2°52.572 42.6 9.7 39 23.2
2009-09-08 09:47:46 51°28.542 2°52.732 40.3 9.8 36 24.6
2009-09-08 09:48:46 51°28.671 2°52.887 41 9.7 36 24.4
2009-09-08 09:49:46 51°28.799 2°53.044 41.5 9.7 38 25.2
2009-09-08 09:50:46 51°28.925 2°53.203 41.4 9.6 40 26.2
2009-09-08 09:51:46 51°29.034 2°53.391 52.7 9.7 53 26.8
2009-09-08 09:52:46 51°29.135 2°53.593 51.7 9.7 50 27.4
2009-09-08 09:53:46 51°29.239 2°53.789 51.4 9.7 50 27.6
2009-09-08 09:54:46 51°29.34 2°53.99 53 9.7 51 27.4
2009-09-08 09:55:46 51°29.442 2°54.19 52.3 9.7 51 27.7
2009-09-08 09:56:46 51°29.546 2°54.384 51 9.6 49 28.6
2009-09-08 09:57:46 51°29.649 2°54.579 52.3 9.6 49 28.7
2009-09-08 09:58:46 51°29.751 2°54.775 52.1 9.5 50 27.9
2009-09-08 09:59:46 51°29.854 2°54.972 52 9.6 50 27.9
2009-09-08 10:00:46 51°29.961 2°55.161 49.7 9.6 47 28.1
2009-09-08 10:01:46 51°30.068 2°55.352 50.3 9.6 48 28.9
2009-09-08 10:02:46 51°30.175 2°55.546 50.9 9.7 49 30
2009-09-08 10:03:46 51°30.28 2°55.742 51.3 9.7 49 30.7
2009-09-08 10:04:46 51°30.389 2°55.932 48.7 9.7 46 30.8
2009-09-08 10:05:46 51°30.5 2°56.121 48.9 9.8 47 30.9
2009-09-08 10:06:46 51°30.61 2°56.314 49.8 9.9 48 30.9
2009-09-08 10:07:46 51°30.723 2°56.5 47.9 9.7 46 30.9
2009-09-08 10:08:46 51°30.832 2°56.691 49.4 9.7 48 30.4
2009-09-08 10:09:46 51°30.942 2°56.881 48.7 9.7 47 30.6
2009-09-08 10:10:46 51°31.059 2°57.059 44.6 9.7 42 30.7
2009-09-08 10:11:46 51°31.176 2°57.236 45.1 9.7 44 31.2
2009-09-08 10:12:46 51°31.292 2°57.414 46.3 9.6 45 32.2
2009-09-08 10:13:46 51°31.404 2°57.598 47.4 9.6 47 32.8
2009-09-08 10:14:46 51°31.518 2°57.777 44.6 9.6 43 33.2
2009-09-08 10:15:46 51°31.639 2°57.945 43.6 9.7 42 33.8
2009-09-08 10:16:46 51°31.755 2°58.123 44 9.7 42 34.2
2009-09-08 10:17:46 51°31.883 2°58.279 35.5 9.7 32 35.8
2009-09-08 10:18:46 51°32.028 2°58.398 29.4 9.8 24 34
2009-09-08 10:19:46 51°32.18 2°58.5 27.2 9.9 24 33
2009-09-08 10:20:46 51°32.332 2°58.608 28.1 10 24 28.5
2009-09-08 10:21:46 51°32.484 2°58.72 28.2 10 26 26
2009-09-08 10:22:46 51°32.634 2°58.836 28.7 10 26 18.9
2009-09-08 10:23:46 51°32.79 2°58.93 20.6 10 17 14.9
2009-09-08 10:24:46 51°32.951 2°59.004 18.5 10 18 13.6
2009-09-08 10:25:46 51°33.111 2°59.07 17.3 10 14 14.3
2009-09-08 10:26:46 51°33.272 2°59.138 18.3 10 16 15
2009-09-08 10:27:46 51°33.435 2°59.183 10.7 10 6 15.8
2009-09-08 10:28:46 51°33.596 2°59.202 8.7 8.7 3 17.5
2009-09-08 10:29:46 51°33.693 2°59.205 6.7 4.3 357 18
2009-09-08 10:30:46 51°33.753 2°59.192 1.8 3.3 349 16.8
2009-09-08 10:31:46 51°33.801 2°59.183 14.4 2.5 2 17.8
2009-09-08 10:32:46 51°33.836 2°59.209 35.3 2.6 37 18.7
2009-09-08 10:34:01 51°33.886 2°59.27 35.5 3.3 37 19
2009-09-08 10:35:01 51°33.931 2°59.323 34 3.4 36 20.4
2009-09-08 10:36:01 51°33.974 2°59.378 38.3 3.3 42 20.1
2009-09-08 10:37:01 51°34.011 2°59.44 41.5 3.2 48 19.9
2009-09-08 10:38:02 51°34.048 2°59.503 42.9 3.2 47 20
2009-09-08 10:39:01 51°34.085 2°59.567 42.8 3.3 46 18.6
2009-09-08 10:40:02 51°34.121 2°59.633 43.6 3.2 50 20.7
2009-09-08 10:41:01 51°34.157 2°59.695 42.2 3.3 47 20
2009-09-08 10:42:02 51°34.195 2°59.759 41.7 3.4 46 17
2009-09-08 10:43:01 51°34.233 2°59.823 42.2 3.3 46 20
2009-09-08 10:44:01 51°34.271 2°59.887 41.8 3.3 46 19.3
2009-09-08 10:45:01 51°34.307 2°59.952 42.1 3.3 48 19.3
2009-09-08 10:46:01 51°34.344 3°0.015 42.2 3.2 48 19.5
2009-09-08 10:47:01 51°34.382 3°0.08 41.8 3.3 46 18.6
2009-09-08 10:48:01 51°34.419 3°0.143 41.9 3.3 48 17.4
2009-09-08 10:49:01 51°34.456 3°0.206 41.8 3.2 46 19.4
2009-09-08 10:50:01 51°34.494 3°0.268 41.1 3.3 45 17.6
2009-09-08 10:51:01 51°34.532 3°0.332 42.9 3.3 47 19.5
2009-09-08 10:52:01 51°34.568 3°0.396 43.6 3.2 47 19.7
2009-09-08 10:53:01 51°34.605 3°0.46 41.9 3.3 47 16.9
2009-09-08 10:54:01 51°34.642 3°0.523 42.2 3.3 47 19.8
2009-09-08 10:55:01 51°34.68 3°0.586 41.9 3.3 46 18.9
2009-09-08 10:56:01 51°34.718 3°0.65 41.7 3.3 46 19.8
2009-09-08 10:57:01 51°34.757 3°0.713 42.2 3.3 46 19.8
2009-09-08 10:58:01 51°34.794 3°0.777 42.3 3.3 47 19.9
2009-09-08 10:59:01 51°34.832 3°0.841 42.3 3.3 46 18.8
2009-09-08 11:00:01 51°34.87 3°0.905 42.7 3.3 46 20.9
2009-09-08 11:01:01 51°34.908 3°0.969 42.6 3.3 48 20.5
2009-09-08 11:02:01 51°34.946 3°1.031 41.4 3.3 46 18.5
2009-09-08 11:03:01 51°34.983 3°1.094 41.9 3.3 46 21.1
2009-09-08 11:04:01 51°35.02 3°1.156 42.2 3.3 46 20.4
2009-09-08 11:05:02 51°35.059 3°1.221 43.1 3.5 48 21.4
2009-09-08 11:06:01 51°35.083 3°1.301 68.3 3.6 83 19.8
2009-09-08 11:07:01 51°35.085 3°1.397 76.5 3.6 94 19.6
2009-09-08 11:08:01 51°35.07 3°1.495 91.3 3.9 111 20.4
2009-09-08 11:09:01 51°35.036 3°1.59 106.1 4.1 128 20.2
2009-09-08 11:10:01 51°34.985 3°1.652 133.5 3.7 152 18.6
2009-09-08 11:11:01 51°34.934 3°1.681 143.6 3 166 18.7
2009-09-08 11:12:01 51°34.889 3°1.692 149.6 2.6 176 18
2009-09-08 11:13:01 51°34.838 3°1.695 170.4 4.3 184 18.1
2009-09-08 11:14:01 51°34.775 3°1.623 258.5 4.8 246 18.3
2009-09-08 11:15:01 51°34.759 3°1.456 274.8 8.3 263 17.7
2009-09-08 11:16:01 51°34.735 3°1.209 267.9 10.8 260 17.3
2009-09-08 11:17:01 51°34.703 3°0.906 267.4 11.7 261 18.3
2009-09-08 11:18:01 51°34.684 3°0.596 273.2 11.7 266 18.4
2009-09-08 11:19:02 51°34.675 3°0.355 279.3 6.1 267 20.8
2009-09-08 11:20:01 51°34.671 3°0.259 300.2 2.2 260 20.9
2009-09-08 11:21:02 51°34.662 3°0.215 312 1.5 242 22.1
2009-09-08 11:22:01 51°34.652 3°0.183 313.9 1.4 243 19.9
2009-09-08 11:23:01 51°34.639 3°0.152 310 1.3 235 22.6
2009-09-08 11:24:01 51°34.625 3°0.125 303.1 1.3 229 22.9
2009-09-08 11:25:01 51°34.61 3°0.099 292.1 1.4 224 22.7
2009-09-08 11:26:01 51°34.591 3°0.075 280.1 1.6 213 22.1
2009-09-08 11:27:01 51°34.573 3°0.053 270.6 1.4 214 21.8
2009-09-08 11:28:02 51°34.554 3°0.032 265.1 1.4 212 21.4
2009-09-08 11:29:01 51°34.536 3°0.012 259.2 1.4 210 21.4
2009-09-08 11:30:02 51°34.517 2°59.994 254 1.4 207 22.6
2009-09-08 11:31:01 51°34.499 2°59.977 249.8 1.2 209 22.7
2009-09-08 11:32:01 51°34.483 2°59.963 247.6 1 214 22.7
2009-09-08 11:33:01 51°34.465 2°59.949 246.8 1.1 211 22.4
2009-09-08 11:34:01 51°34.447 2°59.935 247.8 1.2 207 22
2009-09-08 11:35:01 51°34.428 2°59.921 251.8 1.2 203 22.2
2009-09-08 11:36:01 51°34.412 2°59.908 257.7 1.1 207 21.6
2009-09-08 11:37:01 51°34.394 2°59.894 262.8 1.3 214 21.4
2009-09-08 11:38:01 51°34.366 2°59.845 237.4 4.1 223 21
2009-09-08 11:39:01 51°34.288 2°59.811 163.8 5.3 168 20.2
2009-09-08 11:40:01 51°34.199 2°59.912 134.7 8.9 143 16.9
2009-09-08 11:41:01 51°34.055 3°0.075 139.4 11.6 145 16.3
2009-09-08 11:42:01 51°33.904 3°0.275 129.7 11.9 135 13.5
2009-09-08 11:43:01 51°33.777 3°0.516 123.3 11.9 130 14.1
2009-09-08 11:44:01 51°33.652 3°0.762 122 11.8 127 24.5
2009-09-08 11:45:01 51°33.534 3°1.005 123.9 11.5 130 33.6
2009-09-08 11:46:01 51°33.415 3°1.243 122.3 11.2 128 34.6
2009-09-08 11:47:01 51°33.296 3°1.479 124.6 11.4 131 33.6
2009-09-08 11:48:01 51°33.175 3°1.712 123.9 11.4 130 29.2
2009-09-08 11:49:01 51°33.053 3°1.946 123.1 11.6 131 24.2
2009-09-08 11:50:01 51°32.934 3°2.182 123.4 11.4 129 21.2
2009-09-08 11:51:01 51°32.816 3°2.422 122.1 11.4 127 20.3
2009-09-08 11:52:01 51°32.698 3°2.664 123.2 11.5 129 22.9
2009-09-08 11:53:02 51°32.577 3°2.908 124.6 11.6 129 25.6
2009-09-08 11:54:01 51°32.461 3°3.145 123.2 11.3 128 27.9
2009-09-08 11:55:01 51°32.348 3°3.387 122 11.3 127 28.5
2009-09-08 11:56:01 51°32.23 3°3.62 124.2 11 130 29
2009-09-08 11:57:01 51°32.115 3°3.846 123.7 10.8 128 29.2
2009-09-08 11:58:01 51°32.004 3°4.072 123.6 10.7 129 28.9
2009-09-08 11:59:01 51°31.891 3°4.297 122.5 10.8 128 28.6
2009-09-08 12:00:01 51°31.778 3°4.523 123.6 10.9 130 28.8
2009-09-08 12:01:01 51°31.663 3°4.747 123.2 10.8 129 28.8
2009-09-08 12:02:01 51°31.553 3°4.975 121.9 10.8 128 28.8
2009-09-08 12:03:01 51°31.44 3°5.202 122.5 10.9 129 28.7
2009-09-08 12:04:01 51°31.324 3°5.427 123.3 10.9 129 27.9
2009-09-08 12:05:01 51°31.208 3°5.651 123.4 11 130 25.6
2009-09-08 12:06:01 51°31.088 3°5.872 125 11.1 131 23.6
2009-09-08 12:07:01 51°30.965 3°6.093 124.2 11.1 131 23.3
2009-09-08 12:08:01 51°30.844 3°6.322 123 11.2 127 22.5
2009-09-08 12:09:01 51°30.737 3°6.565 116.9 11.1 124 22.7
2009-09-08 12:10:01 51°30.631 3°6.812 118.6 11.2 124 24.5
2009-09-08 12:11:01 51°30.531 3°7.062 116.2 11 123 23.9
2009-09-08 12:12:01 51°30.427 3°7.309 117.8 11.1 124 24.3
2009-09-08 12:13:01 51°30.316 3°7.549 122.4 11.2 130 22.5
2009-09-08 12:14:01 51°30.184 3°7.767 129.4 11.4 135 20.6
2009-09-08 12:15:01 51°30.044 3°7.977 129.5 11.5 137 19.8
2009-09-08 12:16:01 51°29.904 3°8.188 129.7 11.6 137 18.1
2009-09-08 12:17:01 51°29.764 3°8.399 129.7 11.5 138 17.9
2009-09-08 12:18:02 51°29.619 3°8.612 129.3 11.6 137 17.4
2009-09-08 12:19:01 51°29.478 3°8.818 130.8 11.7 137 16.5
2009-09-08 12:20:01 51°29.336 3°9.031 129.7 11.7 137 16.2
2009-09-08 12:21:01 51°29.195 3°9.246 129.5 11.6 136 15.9
2009-09-08 12:22:01 51°29.055 3°9.465 128.4 11.7 134 16
2009-09-08 12:23:01 51°28.915 3°9.682 130 11.7 137 15.5
2009-09-08 12:24:01 51°28.773 3°9.897 129.6 11.9 136 14.6
2009-09-08 12:25:01 51°28.628 3°10.111 133.2 12 141 13.9
2009-09-08 12:26:01 51°28.474 3°10.314 134.9 12 141 13.1
2009-09-08 12:27:01 51°28.323 3°10.52 134.4 12 140 12.3
2009-09-08 12:28:01 51°28.168 3°10.722 135.6 12 141 11.7
2009-09-08 12:29:01 51°28.014 3°10.929 135.1 12.1 140 11.2
2009-09-08 12:30:01 51°27.861 3°11.138 135 12.1 140 10.6
2009-09-08 12:31:01 51°27.707 3°11.349 134.7 12.2 139 10.1
2009-09-08 12:32:02 51°27.544 3°11.556 137.8 12.2 142 9.8
2009-09-08 12:33:01 51°27.389 3°11.757 138 12.2 141 9.4
2009-09-08 12:34:02 51°27.237 3°11.954 137.9 9.6 142 9.3
2009-09-08 12:35:01 51°27.144 3°12.076 134.6 6.1 137 9.2
2009-09-08 12:36:01 51°27.105 3°12.194 86.3 4.2 98 9.1
2009-09-08 12:37:01 51°27.119 3°12.268 31.3 2.6 51 9
2009-09-08 12:38:01 51°27.145 3°12.338 48.7 3.4 68 9.1
2009-09-08 12:39:01 51°27.146 3°12.436 89.4 4 108 9
2009-09-08 12:40:01 51°27.11 3°12.526 120.7 3.9 131 9
2009-09-08 12:41:02 51°27.07 3°12.605 109.5 3.5 124 9
2009-09-08 12:42:01 51°27.044 3°12.681 94.4 3.3 114 9
2009-09-08 12:43:01 51°27.025 3°12.761 84.3 3.1 106 8.9
2009-09-08 12:44:01 51°27.016 3°12.847 73.3 3.5 95 8.7
2009-09-08 12:45:02 51°27.013 3°12.946 74.1 3.9 93 9
2009-09-08 12:46:01 51°27.005 3°13.053 80.9 4.2 99 9
2009-09-08 12:47:02 51°26.994 3°13.167 83.6 4.4 100 9
2009-09-08 12:48:02 51°26.982 3°13.282 84.9 4.3 100 9
2009-09-08 12:49:01 51°26.97 3°13.392 83.6 4.3 99 8.9
2009-09-08 12:50:02 51°26.957 3°13.505 84.1 4.1 100 9.1
2009-09-08 12:51:01 51°26.945 3°13.61 84.2 4 100 9.2
2009-09-08 12:52:02 51°26.932 3°13.716 84.3 4 100 9.1
2009-09-08 12:53:01 51°26.919 3°13.818 84.5 4 102 9.2
2009-09-08 12:54:01 51°26.906 3°13.922 84.2 4 101 9.1
2009-09-08 12:55:01 51°26.894 3°14.026 80.4 3.9 97 9.1
2009-09-08 12:56:01 51°26.892 3°14.125 65.4 3.6 88 9.2
2009-09-08 12:57:01 51°26.899 3°14.22 60 3.6 83 9.2
2009-09-08 12:58:01 51°26.907 3°14.316 61.6 3.6 83 9.2
2009-09-08 12:59:01 51°26.916 3°14.412 57.8 3.6 80 9.2
2009-09-08 13:00:01 51°26.927 3°14.507 57.9 3.7 80 9.3
2009-09-08 13:01:01 51°26.938 3°14.601 53.7 3.6 78 9.3
2009-09-08 13:02:01 51°26.952 3°14.693 51.9 3.5 76 9.2
2009-09-08 13:03:01 51°26.968 3°14.784 52.8 3.5 74 9.1
2009-09-08 13:04:01 51°26.984 3°14.877 54.2 3.7 76 9.3
2009-09-08 13:05:01 51°27.001 3°14.969 45.2 3.4 68 9.2
2009-09-08 13:06:01 51°27.027 3°15.044 31.2 3.2 56 9.3
2009-09-08 13:07:01 51°27.059 3°15.113 29.7 3.3 54 9.3
2009-09-08 13:08:01 51°27.09 3°15.185 32.4 3.3 56 9.2
2009-09-08 13:09:01 51°27.121 3°15.26 33 3.4 56 9.3
2009-09-08 13:10:01 51°27.152 3°15.336 34.1 3.5 58 9.3
2009-09-08 13:11:01 51°27.179 3°15.422 46.8 3.8 69 9.2
2009-09-08 13:12:01 51°27.189 3°15.53 77.5 4.3 94 9.3
2009-09-08 13:13:01 51°27.17 3°15.645 107.8 4.6 114 9.2
2009-09-08 13:14:01 51°27.125 3°15.748 137.8 4.9 134 9.2
2009-09-08 13:15:01 51°27.063 3°15.823 163.1 4.1 149 9.1
2009-09-08 13:16:01 51°27.011 3°15.866 182.9 3.1 155 9
2009-09-08 13:17:01 51°26.969 3°15.896 195.8 2.6 156 8.9
2009-09-08 13:18:01 51°26.928 3°15.902 236.3 2.2 199 8.9
2009-09-08 13:19:01 51°26.913 3°15.864 287.2 2.7 275 8.8
2009-09-08 13:20:01 51°26.921 3°15.719 281.1 7.6 275 8.9
2009-09-08 13:21:01 51°26.934 3°15.501 281.3 8.3 270 9
2009-09-08 13:22:01 51°26.878 3°15.288 250.5 9.1 240 9.2
2009-09-08 13:23:01 51°26.819 3°15.077 264.3 8.4 258 9.3
2009-09-08 13:24:01 51°26.803 3°14.858 272.1 8.3 265 9.5
2009-09-08 13:25:01 51°26.81 3°14.646 293.9 7.7 295 9.6
2009-09-08 13:26:01 51°26.849 3°14.444 288.8 8 290 9.7
2009-09-08 13:27:01 51°26.908 3°14.331 319.4 3.8 327 9.9
2009-09-08 13:28:01 51°26.95 3°14.304 328 1.7 359 10.1
2009-09-08 13:29:01 51°26.969 3°14.32 343.9 1.3 61 10.2
2009-09-08 13:30:01 51°26.969 3°14.357 8.3 1.5 103 10.1
2009-09-08 13:31:02 51°26.962 3°14.398 19.4 1.6 104 10
2009-09-08 13:32:01 51°26.955 3°14.439 28.5 1.6 104 10.1
2009-09-08 13:33:02 51°26.948 3°14.481 36.7 1.7 107 10.1
2009-09-08 13:34:01 51°26.94 3°14.523 44.9 1.6 106 10.2
2009-09-08 13:35:01 51°26.933 3°14.565 53.2 1.6 105 10.1
2009-09-08 13:36:01 51°26.93 3°14.63 77.1 3.6 92 10.1
2009-09-08 13:37:02 51°26.902 3°14.748 138.7 5.4 132 10
2009-09-08 13:38:01 51°26.824 3°14.785 208 5.1 191 10
2009-09-08 13:39:02 51°26.725 3°14.73 213.5 7.8 201 9.8
2009-09-08 13:40:02 51°26.574 3°14.645 210 10.6 201 9.6
2009-09-08 13:41:01 51°26.402 3°14.561 204.7 11.1 197 9.5
2009-09-08 13:42:02 51°26.221 3°14.482 203.7 11 195 9.3
2009-09-08 13:43:01 51°26.048 3°14.403 205.5 10.9 197 9.3
2009-09-08 13:44:02 51°25.87 3°14.321 204.7 10.9 196 9.6
2009-09-08 13:45:01 51°25.699 3°14.242 205 10.9 196 10
2009-09-08 13:46:02 51°25.518 3°14.175 198.9 11.2 189 11.6
2009-09-08 13:47:02 51°25.332 3°14.137 197 11.2 186 13
2009-09-08 13:48:02 51°25.146 3°14.105 197.9 11.2 187 14.8
2009-09-08 13:49:02 51°24.96 3°14.073 198.2 11.2 186 17.1
2009-09-08 13:50:01 51°24.779 3°14.04 199.7 11.1 186 18.9
2009-09-08 13:51:02 51°24.592 3°14.014 197.8 10.9 185 20.9
2009-09-08 13:52:01 51°24.415 3°13.994 198.1 10.8 183 21
2009-09-08 13:53:02 51°24.239 3°13.971 200.4 10.3 185 16.5
2009-09-08 13:54:02 51°24.07 3°13.95 199 10.2 184 14.9
2009-09-08 13:55:02 51°23.905 3°13.918 205.9 9.8 191 13.7
2009-09-08 13:56:01 51°23.753 3°13.852 209.1 9.7 195 12.9
2009-09-08 13:57:01 51°23.614 3°13.746 220.8 9.3 209 14.2
2009-09-08 13:58:02 51°23.478 3°13.621 221.5 9.3 210 13.5
2009-09-08 13:59:01 51°23.358 3°13.485 233.8 8.6 228 13.3
2009-09-08 14:00:02 51°23.28 3°13.295 246.8 8.4 241 13.6
2009-09-08 14:01:01 51°23.214 3°13.1 247.6 8.6 243 14.3
2009-09-08 14:02:02 51°23.148 3°12.897 246.3 8.5 241 13.9
2009-09-08 14:03:02 51°23.083 3°12.695 250.6 8.5 249 14
2009-09-08 14:04:02 51°23.048 3°12.476 258.9 8.5 260 14.3
2009-09-08 14:05:02 51°23.023 3°12.252 260.9 8.6 262 14.6
2009-09-08 14:06:01 51°23.02 3°12.027 270 8.7 273 14.8
2009-09-08 14:07:02 51°23.028 3°11.791 270 8.8 272 15
2009-09-08 14:08:02 51°23.037 3°11.558 270.4 8.9 275 14.9
2009-09-08 14:09:02 51°23.045 3°11.324 270.1 8.9 274 15
2009-09-08 14:10:01 51°23.055 3°11.09 271.5 8.9 274 15
2009-09-08 14:11:02 51°23.065 3°10.849 270.4 9 273 15.2
2009-09-08 14:12:02 51°23.073 3°10.626 270.3 6 275 15.6
2009-09-08 14:13:02 51°23.079 3°10.526 268 2.8 281 15.6
2009-09-08 14:14:02 51°23.108 3°10.485 298.3 2.6 335 15.8
2009-09-08 14:15:01 51°23.153 3°10.455 312.2 3.4 349 15.8
2009-09-08 14:16:02 51°23.22 3°10.467 343.5 4.4 15 15.8
2009-09-08 14:17:01 51°23.289 3°10.503 344.8 4.4 17 15.6
2009-09-08 14:18:02 51°23.36 3°10.531 340 4.3 13 15.7
2009-09-08 14:19:02 51°23.427 3°10.548 330.1 4 5 15.5
2009-09-08 14:20:02 51°23.494 3°10.554 327.5 4 2 16.1
2009-09-08 14:21:02 51°23.561 3°10.557 328.3 4.1 2 16
2009-09-08 14:22:02 51°23.627 3°10.56 323.5 4 -999 16.2
2009-09-08 14:23:02 51°23.699 3°10.582 350.7 4.9 23 16.4
2009-09-08 14:24:01 51°23.767 3°10.664 27.5 5.4 48 16.6
2009-09-08 14:25:02 51°23.816 3°10.784 55.8 5.2 64 16.5
2009-09-08 14:26:02 51°23.843 3°10.913 79.4 5.1 77 17
2009-09-08 14:27:02 51°23.856 3°11.045 92.5 5 83 16.3
2009-09-08 14:28:02 51°23.869 3°11.177 83 5.1 78 17.2
2009-09-08 14:29:02 51°23.889 3°11.309 73.5 5.1 74 17.2
2009-09-08 14:30:02 51°23.911 3°11.441 78.9 5.1 77 17.3
2009-09-08 14:31:01 51°23.929 3°11.572 83.6 5.1 79 17
2009-09-08 14:32:02 51°23.945 3°11.707 83.3 5.1 80 16.9
2009-09-08 14:33:02 51°23.961 3°11.841 83.7 5.1 80 17
2009-09-08 14:34:02 51°23.976 3°11.972 82.6 5 80 16.6
2009-09-08 14:35:01 51°23.991 3°12.102 82.8 5.1 79 16.6
2009-09-08 14:36:02 51°24.007 3°12.236 83.8 5 80 16.5
2009-09-08 14:37:02 51°24.022 3°12.367 83.6 5 80 16.9
2009-09-08 14:38:02 51°24.036 3°12.497 82.8 5 80 17
2009-09-08 14:39:02 51°24.051 3°12.628 81.8 5 79 16.9
2009-09-08 14:40:02 51°24.066 3°12.757 80.8 4.9 78 16.9
2009-09-08 14:41:02 51°24.082 3°12.887 82.4 5 80 16.4
2009-09-08 14:41:59 51°24.091 3°13.01 97.8 4.8 87 16.1
2009-09-08 14:43:08 51°24.091 3°13.157 107.6 4.8 92 15.8
2009-09-08 14:44:07 51°24.091 3°13.285 102.2 4.9 89 15.6
2009-09-08 14:45:08 51°24.091 3°13.416 101.2 4.9 89 15.4
2009-09-08 14:46:08 51°24.093 3°13.545 100.2 4.8 89 15.2
2009-09-08 14:47:07 51°24.094 3°13.671 100.5 4.8 89 15.1
2009-09-08 14:48:08 51°24.096 3°13.801 99.1 4.8 88 15.1
2009-09-08 14:49:07 51°24.098 3°13.926 99.1 4.7 88 15.3
2009-09-08 14:50:08 51°24.101 3°14.054 99.6 4.7 88 15.4
2009-09-08 14:51:08 51°24.1 3°14.178 110 4.5 94 15.6
2009-09-08 14:52:08 51°24.092 3°14.293 120.6 4.3 99 14.1
2009-09-08 14:53:08 51°24.079 3°14.404 127.1 4.2 101 13.9
2009-09-08 14:54:07 51°24.064 3°14.513 129.5 4.4 103 14.1
2009-09-08 14:55:08 51°24.041 3°14.629 144.3 4.8 116 13.7
2009-09-08 14:56:07 51°23.973 3°14.736 171 4.6 138 14.2
2009-09-08 14:57:08 51°23.925 3°14.791 200.4 3.5 164 14.1
2009-09-08 14:58:07 51°23.875 3°14.76 238.1 3.4 223 13.5
2009-09-08 14:59:08 51°23.851 3°14.72 251 1.1 234 13.9
2009-09-08 15:00:07 51°23.849 3°14.71 264.5 0.2 5 14.3
2009-09-08 15:01:07 51°23.854 3°14.712 266.1 0.5 292 14.1
2009-09-08 15:02:07 51°23.823 3°14.635 240.6 6.2 234 14.4
2009-09-08 15:03:08 51°23.738 3°14.46 237.8 9.1 232 13.9
2009-09-08 15:04:08 51°23.643 3°14.267 237.1 9.2 231 13.6
2009-09-08 15:05:08 51°23.547 3°14.073 237.2 9.3 232 13.2
2009-09-08 15:06:08 51°23.452 3°13.879 238 9.4 232 13.1
2009-09-08 15:07:07 51°23.358 3°13.684 237.3 9.4 233 12.8
2009-09-08 15:08:08 51°23.257 3°13.488 235 9.3 231 13.5
2009-09-08 15:09:07 51°23.161 3°13.299 236 9.3 231 13.9
2009-09-08 15:10:08 51°23.066 3°13.097 238.4 9.4 234 13.6
2009-09-08 15:11:08 51°22.972 3°12.892 237.7 9.7 234 14.1
2009-09-08 15:12:08 51°22.878 3°12.683 237.7 9.7 234 14.4
2009-09-08 15:13:08 51°22.781 3°12.478 236.6 9.6 231 15.2
2009-09-08 15:14:07 51°22.69 3°12.299 235.9 7.3 232 15.7
2009-09-08 15:15:08 51°22.639 3°12.131 251.1 7.4 250 16.1
2009-09-08 15:16:08 51°22.596 3°11.932 251.6 8.1 250 16.6
2009-09-08 15:17:08 51°22.545 3°11.73 249 8.2 248 17.1
2009-09-08 15:18:08 51°22.494 3°11.538 248.2 6.2 247 17.6
2009-09-08 15:19:07 51°22.46 3°11.43 242.7 4 239 17.9
2009-09-08 15:20:08 51°22.434 3°11.338 263.1 3.6 271 18.2
2009-09-08 15:21:08 51°22.454 3°11.289 302.3 1.6 351 18
2009-09-08 15:22:08 51°22.476 3°11.305 333.1 1.6 38 18
2009-09-08 15:23:08 51°22.496 3°11.337 352.1 1.8 49 17.8
2009-09-08 15:24:08 51°22.514 3°11.375 6.7 1.9 55 17.8
2009-09-08 15:25:07 51°22.531 3°11.417 17.1 1.9 59 17.7
2009-09-08 15:26:08 51°22.546 3°11.461 23 1.9 65 17.6
2009-09-08 15:27:08 51°22.56 3°11.506 25.1 1.9 65 17.5
2009-09-08 15:28:07 51°22.572 3°11.549 25.3 1.8 67 17.4
2009-09-08 15:29:08 51°22.586 3°11.597 32.4 2.2 61 17.2
2009-09-08 15:30:07 51°22.608 3°11.663 68.9 3.4 69 16.9
2009-09-08 15:31:08 51°22.615 3°11.756 118.3 3.4 96 16.8
2009-09-08 15:32:07 51°22.588 3°11.825 177.8 3.3 159 16.8
2009-09-08 15:33:08 51°22.524 3°11.754 233.7 7.3 231 17.3
2009-09-08 15:34:08 51°22.441 3°11.55 239.7 9.9 238 17.6
2009-09-08 15:35:08 51°22.355 3°11.319 239.9 10.1 239 18.1
2009-09-08 15:36:08 51°22.271 3°11.087 239.3 10 237 18.7
2009-09-08 15:37:08 51°22.173 3°10.873 234.3 10 233 20.3
2009-09-08 15:38:08 51°22.074 3°10.662 234.5 9.8 233 18.3
2009-09-08 15:39:08 51°21.976 3°10.452 233.8 9.9 233 17.2
2009-09-08 15:40:08 51°21.877 3°10.238 234.4 10.1 233 16.4
2009-09-08 15:41:08 51°21.779 3°10.02 234.1 10.1 235 15.1
2009-09-08 15:42:08 51°21.68 3°9.803 234.3 10.1 235 14.1
2009-09-08 15:43:08 51°21.583 3°9.585 234.8 10 234 13.5
2009-09-08 15:44:08 51°21.486 3°9.367 234.5 10.1 235 12.8
2009-09-08 15:45:08 51°21.388 3°9.148 234.5 10.2 235 11.4
2009-09-08 15:46:08 51°21.29 3°8.925 234.8 10.3 235 11.2
2009-09-08 15:47:08 51°21.191 3°8.698 234.7 10.5 236 10.8
2009-09-08 15:48:08 51°21.089 3°8.467 234.3 10.7 235 10.7
2009-09-08 15:49:08 51°20.984 3°8.24 233 10.5 232 10.5
2009-09-08 15:50:08 51°20.882 3°8.015 234.9 10.4 234 10.3
2009-09-08 15:51:08 51°20.776 3°7.797 232.5 10.4 233 10
2009-09-08 15:52:08 51°20.671 3°7.576 232.8 10.4 232 10.1
2009-09-08 15:53:08 51°20.568 3°7.356 233.5 10.4 233 9.9
2009-09-08 15:54:08 51°20.465 3°7.138 233.5 10.3 233 10
2009-09-08 15:55:07 51°20.364 3°6.924 234 10.1 232 9.9
2009-09-08 15:56:08 51°20.262 3°6.705 234.2 10.1 233 9.9
2009-09-08 15:57:08 51°20.162 3°6.488 234.4 10.1 234 9.9
2009-09-08 15:58:08 51°20.066 3°6.264 234.8 10.3 235 9.9
2009-09-08 15:59:07 51°19.967 3°6.047 233.3 10.2 232 9.9
2009-09-08 16:00:08 51°19.869 3°5.822 238.2 10.1 237 9.9
2009-09-08 16:01:08 51°19.779 3°5.593 239 10.3 238 9.9
2009-09-08 16:02:08 51°19.687 3°5.361 238.3 10.3 238 9.9
2009-09-08 16:03:08 51°19.597 3°5.131 236.3 10.1 237 9.9
2009-09-08 16:04:08 51°19.499 3°4.912 233.8 10.2 234 9.8
2009-09-08 16:05:08 51°19.4 3°4.691 234.5 10.3 235 9.7
2009-09-08 16:06:08 51°19.302 3°4.469 234.9 10.3 237 9.5
2009-09-08 16:07:08 51°19.203 3°4.246 234 10.3 235 10.2
2009-09-08 16:08:08 51°19.107 3°4.021 236 10.2 236 10
2009-09-08 16:09:08 51°19.01 3°3.796 235.4 10.3 234 10
2009-09-08 16:10:08 51°18.911 3°3.576 234 10.2 233 10.1
2009-09-08 16:11:08 51°18.807 3°3.36 232.9 10.3 232 10.2
2009-09-08 16:12:08 51°18.704 3°3.144 233.3 10.2 235 10.5
2009-09-08 16:13:07 51°18.612 3°2.924 236.7 10.2 237 10.4
2009-09-08 16:14:08 51°18.519 3°2.695 237 10.1 237 10.5
2009-09-08 16:15:08 51°18.428 3°2.47 237.4 10.1 238 10.5
2009-09-08 16:16:08 51°18.336 3°2.243 237.2 10.2 237 10.7
2009-09-08 16:17:08 51°18.244 3°2.013 237.2 10.2 237 10.8
2009-09-08 16:18:08 51°18.153 3°1.784 237 10.2 237 11.2
2009-09-08 16:19:08 51°18.06 3°1.557 237.2 10.1 237 10.5
2009-09-08 16:20:08 51°17.969 3°1.33 237.2 10.1 237 10.8
2009-09-08 16:21:08 51°17.878 3°1.104 237.5 10.2 237 11
2009-09-08 16:22:08 51°17.786 3°0.876 237.3 10.2 238 10.9
2009-09-08 16:23:08 51°17.694 3°0.647 237.3 10.2 237 11
2009-09-08 16:24:07 51°17.602 3°0.423 237.5 10.3 236 10.9
2009-09-08 16:25:08 51°17.509 3°0.187 237.6 10.3 238 11
2009-09-08 16:26:08 51°17.417 2°59.957 237.3 10.3 238 11
2009-09-08 16:27:08 51°17.325 2°59.723 238.7 10.4 238 11
2009-09-08 16:28:08 51°17.23 2°59.493 236.8 10.4 236 11.1
2009-09-08 16:29:08 51°17.136 2°59.262 237 10.4 238 10.9
2009-09-08 16:30:08 51°17.042 2°59.03 236.9 10.4 237 11.1
2009-09-08 16:31:08 51°16.947 2°58.797 237.4 10.4 238 11
2009-09-08 16:32:08 51°16.854 2°58.563 237.9 10.5 239 11
2009-09-08 16:33:08 51°16.762 2°58.327 237.3 10.4 237 11.1
2009-09-08 16:34:08 51°16.666 2°58.096 236.9 10.4 237 10.8
2009-09-08 16:35:08 51°16.571 2°57.864 237 10.4 236 10.9
2009-09-08 16:36:08 51°16.475 2°57.631 236.8 10.5 236 10.9
2009-09-08 16:37:08 51°16.381 2°57.397 237.4 10.5 237 10.8
2009-09-08 16:38:08 51°16.287 2°57.162 237.4 10.5 238 10.6
2009-09-08 16:39:08 51°16.192 2°56.926 237.4 10.6 238 10.6
2009-09-08 16:40:08 51°16.094 2°56.694 235.2 10.6 236 10.4
2009-09-08 16:41:08 51°15.991 2°56.467 233.6 10.6 233 10.2
2009-09-08 16:42:08 51°15.885 2°56.243 232.5 10.5 232 10.1
2009-09-08 16:43:08 51°15.78 2°56.019 233 10.5 234 10
2009-09-08 16:44:08 51°15.672 2°55.798 231.7 10.6 231 9.8
2009-09-08 16:45:08 51°15.561 2°55.581 229.4 10.5 229 9.7
2009-09-08 16:46:08 51°15.438 2°55.381 224.1 10.6 225 9.6
2009-09-08 16:47:08 51°15.298 2°55.214 214.3 10.5 213 9.5
2009-09-08 16:48:08 51°15.145 2°55.077 208.2 10.5 205 10
2009-09-08 16:49:08 51°14.984 2°54.974 199.8 10.4 197 10.5
2009-09-08 16:50:08 51°14.812 2°54.919 191.8 10.6 188 10.8
2009-09-08 16:51:08 51°14.635 2°54.916 177.2 10.8 175 10.9
2009-09-08 16:52:08 51°14.461 2°54.991 160.1 10.9 156 11.6
2009-09-08 16:53:08 51°14.319 2°55.162 135.8 10.9 134 12.1
2009-09-08 16:54:08 51°14.191 2°55.349 141.1 10 144 13
2009-09-08 16:55:08 51°14.057 2°55.464 155.5 8.4 155 12.3
2009-09-08 16:56:08 51°13.941 2°55.548 156.1 6.7 156 12.7
2009-09-08 16:57:08 51°13.842 2°55.619 155.3 6.4 154 12.7
2009-09-08 16:58:08 51°13.764 2°55.71 136.5 5.4 136 12.4
2009-09-08 16:59:12 51°13.706 2°55.819 125.8 4.5 127 13.3
2009-09-08 17:00:12 51°13.676 2°55.906 110.7 3.2 112 -999
2009-09-08 17:01:12 51°13.664 2°55.955 123.7 0.7 116 -999